createdAt,value
2023-01-08T09:12:26.626Z,106.60
2023-01-08T09:14:58.384Z,100.50
2023-01-08T09:17:31.666Z,103.80
2023-01-08T09:20:05.847Z,103.40
2023-01-08T09:22:38.798Z,106.60
2023-01-08T09:25:10.490Z,102.30
2023-01-08T09:27:43.863Z,104.30
2023-01-08T09:30:16.170Z,104.50
2023-01-08T09:32:48.143Z,109.60
2023-01-08T09:35:44.226Z,111.80
2023-01-08T09:38:29.996Z,117.40
2023-01-08T09:41:45.558Z,112.00
2023-01-08T09:44:52.950Z,111.20
2023-01-08T09:47:59.249Z,107.60
2023-01-08T09:50:35.631Z,107.20
2023-01-08T09:53:14.509Z,123.10
2023-01-08T09:56:09.102Z,116.40
2023-01-08T09:58:44.573Z,123.00
2023-01-08T10:01:38.069Z,122.40
2023-01-08T10:04:23.311Z,117.40
2023-01-08T10:07:15.013Z,119.00
2023-01-08T10:09:47.727Z,109.90
2023-01-08T10:12:35.742Z,122.30
2023-01-08T10:15:15.171Z,119.00
2023-01-08T10:18:14.521Z,123.00
2023-01-08T10:20:46.824Z,116.10
2023-01-08T10:23:22.879Z,117.30
2023-01-08T10:25:58.696Z,117.90
2023-01-08T10:28:40.923Z,115.00
2023-01-08T10:31:17.592Z,130.90
2023-01-08T10:33:52.977Z,115.20
2023-01-08T10:36:27.823Z,119.10
2023-01-08T10:39:03.971Z,114.70
2023-01-08T10:41:41.190Z,109.90
2023-01-08T10:44:23.775Z,114.00
2023-01-08T10:47:11.767Z,109.00
2023-01-08T10:49:45.639Z,108.50
2023-01-08T10:52:36.929Z,108.10
2023-01-08T10:55:31.824Z,99.10
2023-01-08T10:58:09.852Z,100.30
2023-01-08T11:00:42.238Z,111.30
2023-01-08T11:03:35.627Z,113.60
2023-01-08T11:06:24.332Z,110.70
2023-01-08T11:09:14.321Z,115.70
2023-01-08T11:11:47.195Z,92.40
2023-01-08T11:14:41.106Z,93.70
2023-01-08T11:17:13.741Z,101.90
2023-01-08T11:19:50.659Z,106.60
2023-01-08T11:22:25.483Z,98.90
2023-01-08T11:24:58.407Z,102.50
2023-01-08T11:27:42.939Z,97.80
2023-01-08T11:30:19.774Z,99.90
2023-01-08T11:33:05.411Z,108.30
2023-01-08T11:35:50.219Z,108.20
2023-01-08T11:38:30.480Z,105.20
2023-01-08T11:41:25.574Z,105.40
2023-01-08T11:44:20.787Z,136.80
2023-01-08T11:46:57.303Z,97.30
2023-01-08T11:49:56.554Z,102.70
2023-01-08T11:53:06.319Z,86.30
2023-01-08T11:55:52.956Z,95.60
2023-01-08T11:58:34.743Z,101.30
2023-01-08T12:01:32.860Z,107.90
2023-01-08T12:04:37.417Z,110.50
2023-01-08T12:10:15.322Z,95.60
2023-01-08T12:12:49.850Z,96.20
2023-01-08T12:15:22.234Z,106.80
2023-01-08T12:18:20.503Z,101.40
2023-01-08T12:21:14.441Z,92.60
2023-01-08T12:24:23.714Z,104.50
2023-01-08T12:27:14.414Z,101.70
2023-01-08T12:30:11.783Z,97.30
2023-01-08T12:32:56.851Z,82.50
2023-01-08T12:35:52.667Z,92.30
2023-01-08T12:38:58.591Z,91.50
2023-01-08T12:41:33.924Z,96.10
2023-01-08T12:44:11.609Z,100.10
2023-01-08T12:46:47.748Z,102.50
2023-01-08T12:49:31.485Z,104.80
2023-01-08T12:52:12.556Z,113.20
2023-01-08T12:55:21.079Z,106.50
2023-01-08T12:58:11.078Z,95.10
2023-01-08T13:00:54.395Z,104.10
2023-01-08T13:03:29.970Z,107.50
2023-01-08T13:06:15.668Z,116.00
2023-01-08T13:08:54.106Z,116.70
2023-01-08T13:11:30.797Z,112.80
2023-01-08T13:14:21.613Z,116.30
2023-01-08T13:17:07.816Z,114.20
2023-01-08T13:19:45.523Z,109.50
2023-01-08T13:22:37.731Z,112.30
2023-01-08T13:25:15.425Z,114.80
2023-01-08T13:27:48.115Z,115.80
2023-01-08T13:30:43.166Z,119.80
2023-01-08T13:33:39.991Z,112.30
2023-01-08T13:36:21.086Z,115.50
2023-01-08T13:39:06.361Z,119.10
2023-01-08T13:41:56.736Z,114.60
2023-01-08T13:44:36.954Z,110.20
2023-01-08T13:47:47.111Z,105.40
2023-01-08T13:50:24.294Z,110.60
2023-01-08T13:53:01.085Z,108.10
2023-01-08T13:55:37.347Z,105.40
2023-01-08T13:58:24.524Z,118.30
2023-01-08T14:00:57.872Z,120.80
2023-01-08T14:03:35.805Z,109.90
2023-01-08T14:06:17.129Z,126.10
2023-01-08T14:08:59.128Z,126.60
2023-01-08T14:11:44.886Z,119.80
2023-01-08T14:14:20.077Z,119.70
2023-01-08T14:16:53.548Z,120.10
2023-01-08T14:22:02.029Z,121.70
2023-01-08T14:24:34.503Z,116.10
2023-01-08T14:27:21.269Z,121.80
2023-01-08T14:29:54.014Z,105.80
2023-01-08T14:32:29.427Z,106.30
2023-01-08T14:35:04.219Z,111.90
2023-01-08T14:37:36.152Z,107.40
2023-01-08T14:40:15.893Z,104.20
2023-01-08T14:42:50.555Z,103.30
2023-01-08T14:45:34.511Z,103.20
2023-01-08T14:48:16.861Z,102.60
2023-01-08T14:51:04.814Z,98.50
2023-01-08T14:53:49.737Z,97.80
2023-01-08T14:56:30.452Z,101.50
2023-01-08T14:59:10.227Z,96.70
2023-01-08T15:01:42.367Z,99.60
2023-01-08T15:04:19.065Z,99.40
2023-01-08T15:06:52.886Z,100.80
2023-01-08T15:09:32.463Z,99.20
2023-01-08T15:12:22.730Z,100.50
2023-01-08T15:14:55.511Z,104.90
2023-01-08T15:17:28.883Z,93.20
2023-01-08T15:20:02.063Z,99.90
2023-01-08T15:22:36.584Z,93.00
2023-01-08T15:25:18.026Z,98.80
2023-01-08T15:27:58.881Z,102.90
2023-01-08T15:30:38.348Z,95.20
2023-01-08T15:33:23.256Z,93.70
2023-01-08T15:35:55.005Z,97.20
2023-01-08T15:38:26.617Z,96.20
2023-01-08T15:40:58.298Z,104.80
2023-01-08T15:43:29.967Z,93.70
2023-01-08T15:46:02.107Z,97.50
2023-01-08T15:48:34.095Z,100.30
2023-01-08T15:51:07.379Z,96.90
2023-01-08T15:53:39.115Z,95.60
2023-01-08T15:56:10.654Z,97.80
2023-01-08T15:58:42.466Z,95.20
2023-01-08T16:01:14.686Z,94.30
2023-01-08T16:03:47.550Z,90.60
2023-01-08T16:06:19.370Z,87.30
2023-01-08T16:08:51.383Z,92.90
2023-01-08T16:11:25.790Z,96.70
2023-01-08T16:13:57.641Z,98.90
2023-01-08T16:16:29.867Z,100.40
2023-01-08T16:19:02.003Z,100.10
2023-01-08T16:21:33.734Z,91.40
2023-01-08T16:24:06.305Z,98.20
2023-01-08T16:26:41.128Z,104.30
2023-01-08T16:29:12.803Z,94.30
2023-01-08T16:31:47.390Z,105.50
2023-01-08T16:34:20.151Z,103.70
2023-01-08T16:36:51.929Z,97.50
2023-01-08T16:39:23.926Z,103.20
2023-01-08T16:41:56.576Z,104.60
2023-01-08T16:44:28.811Z,98.40
2023-01-08T16:47:02.956Z,110.90
2023-01-08T16:49:36.262Z,102.40
2023-01-08T16:52:09.795Z,96.60
2023-01-08T16:57:14.237Z,117.80
2023-01-08T16:59:46.171Z,100.30
2023-01-08T17:02:19.462Z,104.30
2023-01-08T17:04:54.475Z,103.50
2023-01-08T17:07:26.261Z,96.90
2023-01-08T17:09:59.430Z,102.50
2023-01-08T17:12:31.302Z,90.00
2023-01-08T17:15:04.924Z,100.80
2023-01-08T17:20:09.459Z,102.70
2023-01-08T17:22:41.295Z,112.40
2023-01-08T17:25:13.347Z,107.40
2023-01-08T17:27:45.177Z,106.80
2023-01-08T17:30:16.938Z,110.60
2023-01-08T17:32:48.735Z,108.60
2023-01-08T17:35:26.112Z,107.30
2023-01-08T17:37:57.807Z,101.00
2023-01-08T17:40:29.537Z,103.20
2023-01-08T17:43:01.286Z,104.50
2023-01-08T17:45:33.096Z,105.30
2023-01-08T17:48:05.838Z,104.90
2023-01-08T17:50:40.145Z,101.60
2023-01-08T17:53:12.115Z,106.80
2023-01-08T17:55:47.376Z,107.00
2023-01-08T17:58:19.839Z,110.50
2023-01-08T18:00:51.615Z,102.90
2023-01-08T18:03:23.550Z,104.50
2023-01-08T18:05:55.731Z,102.90
2023-01-08T18:08:27.574Z,101.50
2023-01-08T18:11:07.664Z,103.20
2023-01-08T18:13:39.707Z,95.80
2023-01-08T18:16:14.319Z,95.70
2023-01-08T18:18:46.179Z,99.80
2023-01-08T18:21:19.194Z,99.90
2023-01-08T18:23:56.709Z,102.20
2023-01-08T18:26:29.426Z,99.30
2023-01-08T18:29:01.338Z,94.10
2023-01-08T18:31:33.123Z,101.10
2023-01-08T18:34:06.722Z,97.40
2023-01-08T18:36:41.526Z,101.90
2023-01-08T18:39:13.550Z,96.10
2023-01-08T18:42:04.584Z,107.20
2023-01-08T18:44:36.772Z,93.20
2023-01-08T18:47:09.163Z,95.60
2023-01-08T18:49:40.861Z,93.20
2023-01-08T18:52:14.203Z,92.80
2023-01-08T18:54:45.912Z,100.70
2023-01-08T18:57:18.896Z,100.30
2023-01-08T18:59:51.747Z,99.20
2023-01-08T19:02:31.638Z,103.90
2023-01-08T19:05:03.991Z,102.10
2023-01-08T19:07:36.413Z,96.50
2023-01-08T19:10:12.591Z,102.30
2023-01-08T19:12:45.137Z,100.80
2023-01-08T19:15:18.028Z,98.50
2023-01-08T19:17:50.521Z,95.20
2023-01-08T19:20:23.093Z,100.20
2023-01-08T19:22:58.061Z,96.30
2023-01-08T19:25:29.827Z,101.30
2023-01-08T19:28:01.810Z,104.00
2023-01-08T19:30:34.444Z,105.40
2023-01-08T19:33:06.364Z,101.30
2023-01-08T19:35:41.737Z,104.20
2023-01-08T19:38:15.070Z,100.90
2023-01-08T19:40:47.032Z,111.10
2023-01-08T19:43:39.064Z,105.50
2023-01-08T19:46:15.672Z,102.80
2023-01-08T19:48:48.823Z,100.70
2023-01-08T19:51:20.872Z,104.00
2023-01-08T19:53:53.631Z,98.00
2023-01-08T19:56:25.889Z,99.50
2023-01-08T19:58:58.869Z,102.10
2023-01-08T20:01:31.017Z,97.70
2023-01-08T20:04:06.237Z,102.90
2023-01-08T20:06:38.167Z,99.00
2023-01-08T20:09:11.795Z,103.00
2023-01-08T20:11:43.805Z,101.70
2023-01-08T20:14:15.717Z,107.80
2023-01-08T20:16:48.415Z,102.90
2023-01-08T20:19:24.010Z,103.30
2023-01-08T20:21:55.925Z,103.30
2023-01-08T20:24:29.069Z,105.00
2023-01-08T20:27:02.197Z,103.50
2023-01-08T20:29:34.696Z,100.70
2023-01-08T20:32:09.197Z,103.80
2023-01-08T20:34:41.638Z,99.30
2023-01-08T20:37:14.229Z,100.10
2023-01-08T20:39:48.385Z,98.30
2023-01-08T20:42:32.998Z,99.80
2023-01-08T20:45:06.743Z,103.70
2023-01-08T20:47:44.851Z,105.70
2023-01-08T20:50:27.086Z,102.20
2023-01-08T20:53:00.150Z,101.30
2023-01-08T20:55:32.489Z,102.70
2023-01-08T20:58:04.354Z,105.40
2023-01-08T21:00:36.341Z,100.50
2023-01-08T21:03:08.381Z,104.50
2023-01-08T21:05:40.249Z,104.70
2023-01-08T21:08:12.235Z,102.80
2023-01-08T21:10:44.116Z,105.00
2023-01-08T21:13:16.084Z,103.50
2023-01-08T21:15:48.621Z,100.20
2023-01-08T21:18:21.416Z,107.10
2023-01-08T21:20:58.397Z,105.50
2023-01-08T21:23:32.284Z,107.00
2023-01-08T21:26:10.279Z,107.70
2023-01-08T21:28:43.428Z,102.10
2023-01-08T21:31:20.455Z,100.50
2023-01-08T21:33:57.925Z,99.40
2023-01-08T21:36:31.803Z,99.60
2023-01-08T21:39:03.799Z,103.10
2023-01-08T21:41:54.143Z,99.50
2023-01-08T21:44:45.521Z,99.90
2023-01-08T21:47:18.891Z,94.70
2023-01-08T21:49:51.017Z,99.30
2023-01-08T21:52:41.595Z,108.30
2023-01-08T21:55:17.660Z,114.40
2023-01-08T21:57:49.435Z,105.70
2023-01-08T22:00:21.567Z,115.50
2023-01-08T22:02:53.162Z,118.00
2023-01-08T22:05:26.135Z,112.90
2023-01-08T22:07:57.873Z,112.10
2023-01-08T22:10:29.508Z,116.50
2023-01-08T22:13:01.976Z,108.30
2023-01-08T22:15:33.941Z,116.10
2023-01-08T22:18:05.728Z,117.10
2023-01-08T22:20:37.557Z,112.80
2023-01-08T22:23:10.135Z,106.00
2023-01-08T22:25:46.056Z,112.10
2023-01-08T22:28:18.336Z,115.90
2023-01-08T22:30:50.115Z,119.70
2023-01-08T22:33:23.548Z,115.60
2023-01-08T22:35:57.166Z,117.50
2023-01-08T22:38:29.180Z,118.00
2023-01-08T22:41:01.371Z,116.90
2023-01-08T22:43:33.202Z,115.70
2023-01-08T22:46:05.611Z,119.30
2023-01-08T22:48:38.459Z,118.20
2023-01-08T22:51:15.350Z,120.60
2023-01-08T22:53:47.001Z,108.60
2023-01-08T22:56:21.326Z,123.40
2023-01-08T22:58:53.457Z,118.30
2023-01-08T23:01:28.357Z,115.80
2023-01-08T23:04:01.680Z,119.00
2023-01-08T23:06:33.770Z,118.20
2023-01-08T23:09:05.425Z,118.00
2023-01-08T23:11:37.293Z,118.20
2023-01-08T23:14:12.934Z,118.30
2023-01-08T23:16:45.470Z,119.90
2023-01-08T23:19:19.628Z,124.60
2023-01-08T23:21:51.468Z,119.60
2023-01-08T23:24:23.392Z,124.70
2023-01-08T23:26:57.864Z,127.00
2023-01-08T23:29:32.591Z,123.30
2023-01-08T23:32:05.392Z,133.20
2023-01-08T23:34:39.526Z,96.80
2023-01-08T23:37:11.392Z,124.10
2023-01-08T23:39:43.442Z,116.70
2023-01-08T23:42:16.093Z,113.40
2023-01-08T23:44:49.683Z,125.70
2023-01-08T23:47:24.215Z,120.10
2023-01-08T23:49:55.979Z,123.10
2023-01-08T23:52:31.771Z,120.80
2023-01-08T23:55:04.457Z,111.20
2023-01-08T23:57:36.475Z,121.10
